Alessandro F — IBVQ — position and weather

sailwx.info

Track history (hours):
 
Tides and Currents Weather Stations Pressure Air Temp Water Temp Dewpoint Dewpoint Depression Visibility Wind Speed Wind Dir Waves Ship Positions

Alessandro F

Last reported at 2016-Jul-25 09:30 UTC. Time now 2016-Jul-25 10:00 UTC.
Position N 43°27' E 005°09'.

Length 100 m; draft 5.9 m.

Type: Ship (hazmat cat B). MMSI: 247046400.

Date/timePositionNaut miles runAvg speedWind from/ knotsBaromVisibWave heightAir tempDewpointWater temp
2016-Jul-25 09:30N 43°27' E 005°09'0 0.0
2016-Jul-25 08:31N 43°27' E 005°09'0 0.0
2016-Jul-25 07:30N 43°27' E 005°09'0 0.0
2016-Jul-24 21:33N 43°27' E 005°09'5 4.7
2016-Jul-24 20:33N 43°24' E 005°04'4 4.2
2016-Jul-24 19:34N 43°23' E 004°58'0 0.0
2016-Jul-24 18:34N 43°23' E 004°58'0 0.0
2016-Jul-24 17:33N 43°23' E 004°58'0 0.0
2016-Jul-24 16:34N 43°23' E 004°58'0 0.0
2016-Jul-24 15:34N 43°23' E 004°58'0 0.5
2016-Jul-24 14:34N 43°23' E 004°58'1111.2
2016-Jul-24 13:32N 43°12' E 005°03'10710.7
2016-Jul-24 03:33N 41°55' E 003°23'3012.3
2016-Jul-24 01:08N 41°34' E 002°54'813.5
2016-Jul-24 00:33N 41°29' E 002°46'2911.8
2016-Jul-23 22:06N 41°18' E 002°10'3 0.7
2016-Jul-23 18:32N 41°20' E 002°09'0 0.0
2016-Jul-23 16:08N 41°20' E 002°09'1 0.1
2016-Jul-23 06:15N 41°21' E 002°10'11 6.5
2016-Jul-23 04:33N 41°10' E 002°14'2 1.9
2016-Jul-23 03:32N 41°08' E 002°14'1 1.1
2016-Jul-23 02:22N 41°09' E 002°15'5 2.5
2016-Jul-23 00:30N 41°14' E 002°14'8 8.6
2016-Jul-22 23:33N 41°19' E 002°23'1412.5
2016-Jul-22 22:28N 41°24' E 002°39'1111.9
2016-Jul-22 21:31N 41°28' E 002°53'1111.5
2016-Jul-22 20:32N 41°32' E 003°08'1212.0
2016-Jul-22 19:32N 41°35' E 003°23'11912.7
2016-Jul-22 10:12N 42°17' E 005°53'912.9
2016-Jul-22 09:32N 42°20' E 006°03'2913.1
2016-Jul-22 07:21N 42°30' E 006°40'4812.6
2016-Jul-22 03:32N 42°46' E 007°41'1212.4
2016-Jul-22 02:33N 42°51' E 007°57'1412.2
2016-Jul-22 01:22N 42°55' E 008°15'1012.2
2016-Jul-22 00:31N 42°59' E 008°29'3511.8
2016-Jul-21 21:33N 43°10' E 009°14'1312.2
2016-Jul-21 20:31N 43°10' E 009°32'1211.8
2016-Jul-21 19:31N 42°59' E 009°39'27 3.7
2016-Jul-21 12:11N 42°32' E 009°35'2 0.1
2016-Jul-20 19:26N 42°33' E 009°33'0 0.0
2016-Jul-20 15:24N 42°33' E 009°33'0 0.0
2016-Jul-20 09:16N 42°33' E 009°33'0 0.0
2016-Jul-20 08:30N 42°33' E 009°33'16 4.0
2016-Jul-20 04:33N 42°29' E 009°53'1211.7
2016-Jul-20 03:33N 42°18' E 009°58'1611.9
2016-Jul-20 02:11N 42°02' E 010°06'912.2
2016-Jul-20 01:25N 41°53' E 010°09'2312.3
2016-Jul-19 23:31N 41°31' E 010°19'31311.5
2016-Jul-18 20:18N 36°58' E 013°36'811.3
2016-Jul-18 19:34N 36°53' E 013°45'3411.1
2016-Jul-18 16:32N 36°33' E 014°19'1211.9
2016-Jul-18 15:34N 36°26' E 014°30'1111.4
2016-Jul-18 14:34N 36°19' E 014°41'1211.9
2016-Jul-18 13:33N 36°07' E 014°43'1211.7
2016-Jul-18 12:34N 35°55' E 014°43'9 9.2
2016-Jul-18 11:33N 35°48' E 014°36'38 1.2
2016-Jul-17 04:31N 36°26' E 014°31'1213.1
2016-Jul-17 03:34N 36°33' E 014°18'1313.3
2016-Jul-17 02:33N 36°41' E 014°05'1414.2
2016-Jul-17 01:34N 36°49' E 013°51'24712.9
2016-Jul-16 06:27N 38°58' E 009°24'18 9.4
2016-Jul-16 04:33N 39°06' E 009°04'0 0.0
2016-Jul-16 03:32N 39°06' E 009°04'0 0.0
2016-Jul-16 02:33N 39°06' E 009°04'0 0.0
2016-Jul-16 01:33N 39°06' E 009°04'0 0.0
2016-Jul-16 00:33N 39°06' E 009°04'0 0.0
2016-Jul-15 23:33N 39°06' E 009°04'0 0.0
2016-Jul-15 22:33N 39°06' E 009°04'0 0.0
2016-Jul-15 21:33N 39°06' E 009°04'0 0.0
2016-Jul-15 20:33N 39°06' E 009°04'0 0.0
2016-Jul-15 19:33N 39°06' E 009°04'0 0.0
2016-Jul-15 18:33N 39°07' E 009°04'0 0.0
2016-Jul-15 17:33N 39°07' E 009°04'0 0.0
2016-Jul-15 16:33N 39°07' E 009°04'0 0.0
2016-Jul-15 15:32N 39°07' E 009°04'0 0.0
2016-Jul-15 14:33N 39°07' E 009°04'0 0.1
2016-Jul-15 13:32N 39°06' E 009°04'0 0.0
2016-Jul-15 12:33N 39°06' E 009°04'0 0.0
2016-Jul-15 11:33N 39°06' E 009°04'0 0.0
2016-Jul-15 10:33N 39°06' E 009°04'0 0.0
2016-Jul-15 09:33N 39°06' E 009°04'  
Track history (hours):
 
Tides and Currents Weather Stations Pressure Air Temp Water Temp Dewpoint Dewpoint Depression Visibility Wind Speed Wind Dir Waves Ship Positions

Alessandro F

Last reported at 2016-Jul-25 09:30 UTC. Time now 2016-Jul-25 10:00 UTC.
Position N 43°27' E 005°09'.

Length 100 m; draft 5.9 m.

Type: Ship (hazmat cat B). MMSI: 247046400.

Date/timePositionNaut miles runAvg speedWind from/ knotsBaromVisibWave heightAir tempDewpointWater temp
2016-Jul-25 09:30N 43°27' E 005°09'0 0.0
2016-Jul-25 08:31N 43°27' E 005°09'0 0.0
2016-Jul-25 07:30N 43°27' E 005°09'0 0.0
2016-Jul-24 21:33N 43°27' E 005°09'5 4.7
2016-Jul-24 20:33N 43°24' E 005°04'4 4.2
2016-Jul-24 19:34N 43°23' E 004°58'0 0.0
2016-Jul-24 18:34N 43°23' E 004°58'0 0.0
2016-Jul-24 17:33N 43°23' E 004°58'0 0.0
2016-Jul-24 16:34N 43°23' E 004°58'0 0.0
2016-Jul-24 15:34N 43°23' E 004°58'0 0.5
2016-Jul-24 14:34N 43°23' E 004°58'1111.2
2016-Jul-24 13:32N 43°12' E 005°03'10710.7
2016-Jul-24 03:33N 41°55' E 003°23'3012.3
2016-Jul-24 01:08N 41°34' E 002°54'813.5
2016-Jul-24 00:33N 41°29' E 002°46'2911.8
2016-Jul-23 22:06N 41°18' E 002°10'3 0.7
2016-Jul-23 18:32N 41°20' E 002°09'0 0.0
2016-Jul-23 16:08N 41°20' E 002°09'1 0.1
2016-Jul-23 06:15N 41°21' E 002°10'11 6.5
2016-Jul-23 04:33N 41°10' E 002°14'2 1.9
2016-Jul-23 03:32N 41°08' E 002°14'1 1.1
2016-Jul-23 02:22N 41°09' E 002°15'5 2.5
2016-Jul-23 00:30N 41°14' E 002°14'8 8.6
2016-Jul-22 23:33N 41°19' E 002°23'1412.5
2016-Jul-22 22:28N 41°24' E 002°39'1111.9
2016-Jul-22 21:31N 41°28' E 002°53'1111.5
2016-Jul-22 20:32N 41°32' E 003°08'1212.0
2016-Jul-22 19:32N 41°35' E 003°23'11912.7
2016-Jul-22 10:12N 42°17' E 005°53'912.9
2016-Jul-22 09:32N 42°20' E 006°03'2913.1
2016-Jul-22 07:21N 42°30' E 006°40'4812.6
2016-Jul-22 03:32N 42°46' E 007°41'1212.4
2016-Jul-22 02:33N 42°51' E 007°57'1412.2
2016-Jul-22 01:22N 42°55' E 008°15'1012.2
2016-Jul-22 00:31N 42°59' E 008°29'3511.8
2016-Jul-21 21:33N 43°10' E 009°14'1312.2
2016-Jul-21 20:31N 43°10' E 009°32'1211.8
2016-Jul-21 19:31N 42°59' E 009°39'27 3.7
2016-Jul-21 12:11N 42°32' E 009°35'2 0.1
2016-Jul-20 19:26N 42°33' E 009°33'0 0.0
2016-Jul-20 15:24N 42°33' E 009°33'0 0.0
2016-Jul-20 09:16N 42°33' E 009°33'0 0.0
2016-Jul-20 08:30N 42°33' E 009°33'16 4.0
2016-Jul-20 04:33N 42°29' E 009°53'1211.7
2016-Jul-20 03:33N 42°18' E 009°58'1611.9
2016-Jul-20 02:11N 42°02' E 010°06'912.2
2016-Jul-20 01:25N 41°53' E 010°09'2312.3
2016-Jul-19 23:31N 41°31' E 010°19'31311.5
2016-Jul-18 20:18N 36°58' E 013°36'811.3
2016-Jul-18 19:34N 36°53' E 013°45'3411.1
2016-Jul-18 16:32N 36°33' E 014°19'1211.9
2016-Jul-18 15:34N 36°26' E 014°30'1111.4
2016-Jul-18 14:34N 36°19' E 014°41'1211.9
2016-Jul-18 13:33N 36°07' E 014°43'1211.7
2016-Jul-18 12:34N 35°55' E 014°43'9 9.2
2016-Jul-18 11:33N 35°48' E 014°36'38 1.2
2016-Jul-17 04:31N 36°26' E 014°31'1213.1
2016-Jul-17 03:34N 36°33' E 014°18'1313.3
2016-Jul-17 02:33N 36°41' E 014°05'1414.2
2016-Jul-17 01:34N 36°49' E 013°51'24712.9
2016-Jul-16 06:27N 38°58' E 009°24'18 9.4
2016-Jul-16 04:33N 39°06' E 009°04'0 0.0
2016-Jul-16 03:32N 39°06' E 009°04'0 0.0
2016-Jul-16 02:33N 39°06' E 009°04'0 0.0
2016-Jul-16 01:33N 39°06' E 009°04'0 0.0
2016-Jul-16 00:33N 39°06' E 009°04'0 0.0
2016-Jul-15 23:33N 39°06' E 009°04'0 0.0
2016-Jul-15 22:33N 39°06' E 009°04'0 0.0
2016-Jul-15 21:33N 39°06' E 009°04'0 0.0
2016-Jul-15 20:33N 39°06' E 009°04'0 0.0
2016-Jul-15 19:33N 39°06' E 009°04'0 0.0
2016-Jul-15 18:33N 39°07' E 009°04'0 0.0
2016-Jul-15 17:33N 39°07' E 009°04'0 0.0
2016-Jul-15 16:33N 39°07' E 009°04'0 0.0
2016-Jul-15 15:32N 39°07' E 009°04'0 0.0
2016-Jul-15 14:33N 39°07' E 009°04'0 0.1
2016-Jul-15 13:32N 39°06' E 009°04'0 0.0
2016-Jul-15 12:33N 39°06' E 009°04'0 0.0
2016-Jul-15 11:33N 39°06' E 009°04'0 0.0
2016-Jul-15 10:33N 39°06' E 009°04'0 0.0
2016-Jul-15 09:33N 39°06' E 009°04'  

Dump ship's entire track history